Historique des mesures à Cassis (13260), France
Quotidien Résumé Juin 18, 2018 Unités:  Métrique    US   Métrique/US
« Précédent (Jour)
Suivant (Jour) »
Quotidien Hebdomadaire Mensuel Annuel Période au choix
  Maximum: Minimum: Moyenne:
Température: TemperatureC °C 19.5 °C 24.2 °C
Point de rosée: DewpointC °C 11.3 °C 13.6 °C
Humidité: Humidity % 44 % 49 %
Vitesse du vent: 0 km/h 0 km/h 12.2 km/h
Rafales: 0 km/h - -
Vent:- - SW
Pression: PressurehPa hPa 1010.7 hPa -
Précipitations: 0.0 mm    
Historical Graphs
 
 
Mesures pour : Juin 18, 2018
Heure Temperature Point de rosée Pression Vent Vitesse du vent Rafales Humidité Pluie (par heure) Conditions
TemperatureC °C DewpointC °C PressurehPa hPa Calm     Humidity % HourlyPrecipMM mm SoftwareType W/m2
00:10 22.4 °C 12.8 °C 1011.1 hPa WNW 30.1 km/h 30.1 km/h 55 % 0.0 mm open2300-1.11 W/m2
01:10 21.8 °C 12.3 °C 1011.3 hPa WNW 19.6 km/h 20.3 km/h 55 % 0.0 mm open2300-1.11 W/m2
02:10 21.3 °C 12.4 °C 1010.9 hPa NNE 11.6 km/h 15 km/h 57 % 0.0 mm open2300-1.11 W/m2
03:10 20.6 °C 11.8 °C 1010.7 hPa NW 17.9 km/h 19.6 km/h 57 % 0.0 mm open2300-1.11 W/m2
04:10 20.3 °C 11.7 °C 1010.7 hPa NNE 20.9 km/h 20.9 km/h 58 % 0.0 mm open2300-1.11 W/m2
05:10 19.6 °C 11.4 °C 1011.1 hPa North 6.9 km/h 7.6 km/h 59 % 0.0 mm open2300-1.11 W/m2
06:10 19.5 °C 11.3 °C 1011.4 hPa NNW 5.6 km/h 5.6 km/h 59 % 0.0 mm open2300-1.11 W/m2
07:10 20.3 °C 11.7 °C 1011.5 hPa NNW 13.2 km/h 17.4 km/h 58 % 0.0 mm open2300-1.11 W/m2
08:10 22.0 °C 12.5 °C 1011.7 hPa NW 8.9 km/h 51 km/h 55 % 0.0 mm open2300-1.11 W/m2
09:10 22.2 °C 12.9 °C 1012.3 hPa North 6.4 km/h 43 km/h 56 % 0.0 mm open2300-1.11 W/m2
10:10 24.9 °C 14.9 °C 1012.2 hPa NW 18.7 km/h 18.7 km/h 54 % 0.0 mm open2300-1.11 W/m2
11:10 26.9 °C 15.6 °C 1012.8 hPa NW 8 km/h 16.9 km/h 50 % 0.0 mm open2300-1.11 W/m2
12:10 28.8 °C 16.3 °C 1012.6 hPa Calm   6.9 km/h 47 % 0.0 mm open2300-1.11 W/m2
13:10 31.2 °C 17.4 °C 1012.7 hPa SE 9.3 km/h 9.3 km/h 44 % 0.0 mm open2300-1.11 W/m2
14:10 30.3 °C 16.7 °C 1012.5 hPa West 9.3 km/h 12.7 km/h 44 % 0.0 mm open2300-1.11 W/m2
15:10 29.6 °C 16.1 °C 1012.4 hPa WNW 26.7 km/h 26.7 km/h 44 % 0.0 mm open2300-1.11 W/m2
16:10 29.6 °C 16.1 °C 1012.5 hPa West 20.9 km/h 30.7 km/h 44 % 0.0 mm open2300-1.11 W/m2
17:10 29.8 °C 16.2 °C 1012.8 hPa North 13.2 km/h 37.5 km/h 44 % 0.0 mm open2300-1.11 W/m2
18:10 29.4 °C 16.2 °C 1012.6 hPa West 12.7 km/h 33.6 km/h 45 % 0.0 mm open2300-1.11 W/m2
19:10 29.1 °C 15.6 °C 1012.2 hPa NNW 11.6 km/h 13.2 km/h 44 % 0.0 mm open2300-1.11 W/m2
20:10 28.5 °C 15.4 °C 1012.5 hPa West 18.7 km/h 19.6 km/h 45 % 0.0 mm open2300-1.11 W/m2
21:10 26.9 °C 14.9 °C 1012.6 hPa Calm   4.7 km/h 48 % 0.0 mm open2300-1.11 W/m2
22:10 25.4 °C 14.6 °C 1013.0 hPa NNW 10.3 km/h 24.3 km/h 51 % 0.0 mm open2300-1.11 W/m2
23:10 24.1 °C 14.2 °C 1013.4 hPa NW 6.9 km/h 9.8 km/h 54 % 0.0 mm open2300-1.11 W/m2
Observations météo à CASSIS
WU-History script by Weather Underground - 1 mb